首页
METAR-TAF:

METAR-TAF

机场 :

卡斯尔加, 不列颠哥伦比亚, 加拿大

纬度: 49-18N, 经度: 117-38W, 海拔: 495米

当前天气观测

该预报发布于1小时和9分钟前的21:00 UTC
风速4节,风向
温度 15°C
湿度 77%
气压 1016 hPa
能見度: 24.1公里
散云层高于8000英尺
多云层高于9600英尺

METAR: CYCG 262100Z 35004KT 15SM SCT080 BKN096 15/11 A2999 RMK AC3AC4 SLP160 DENSITY ALT 2000FT

时间: 15:09 (22:09 UTC)

预报

该预报发布于3小时和31分钟前的18:38 UTC
预报有效从26日的 19点(UTC)到 27日的 04点(UTC)
风速3节,风向多变
能見度: 10公里
少量云层高于2000英尺
散云层高于6000英尺
阴天层高于8000英尺
成为
从 26日的 19点(UTC)到 26日的 21点(UTC)
风速10节,风向,有时为20节阵风
成为
从 27日的 02点(UTC)到 27日的 04点(UTC)
风速5节,风向北转东北

TAF: CYCG 261838Z 2619/2704 VRB03KT P6SM FEW020 SCT060 OVC080 BECMG 2619/2621 35010G20KT BECMG 2702/2704 02005KT RMK NXT FCST BY 270100Z

超过4000个机场的气象观测和天气预报(METAR&TAF报告)。

可查询的气象台以黄色和红色小点在地图上表示。

将鼠标移到小点上方,可查看气象台名称。

然后点击查看天气观测和预报。

如需切换地图:点击带黑十字的绿色按钮放大地图;点击带横线的绿色按钮缩小地图;或者点击绿色箭头查看邻近地区的地图。


METAR-TAF: